createdAt,value
2022-11-21T00:05:20.724Z,50.9
2022-11-21T00:10:57.879Z,50.8
2022-11-21T00:16:35.436Z,50.8
2022-11-21T00:22:02.308Z,50.8
2022-11-21T00:27:28.162Z,50.8
2022-11-21T00:33:05.417Z,50.7
2022-11-21T00:38:26.787Z,50.6
2022-11-21T00:44:04.147Z,50.6
2022-11-21T00:49:25.789Z,50.6
2022-11-21T00:54:31.515Z,50.6
2022-11-21T00:59:52.802Z,50.5
2022-11-21T01:05:15.132Z,50.5
2022-11-21T01:10:51.783Z,50.4
2022-11-21T01:15:43.118Z,50.4
2022-11-21T01:21:20.825Z,50.4
2022-11-21T01:26:58.387Z,50.3
2022-11-21T01:32:35.659Z,50.3
2022-11-21T01:37:58.360Z,50.3
2022-11-21T01:43:20.101Z,50.2
2022-11-21T01:48:58.754Z,50.2
2022-11-21T01:54:43.968Z,50.1
2022-11-21T01:59:35.231Z,50.1
2022-11-21T02:05:13.772Z,50.1
2022-11-21T02:10:36.422Z,50
2022-11-21T02:15:43.169Z,50
2022-11-21T02:21:05.707Z,49.9
2022-11-21T02:26:18.643Z,49.9
2022-11-21T02:31:24.140Z,49.9
2022-11-21T02:36:46.255Z,49.8
2022-11-21T02:42:09.622Z,49.8
2022-11-21T02:47:31.858Z,49.8
2022-11-21T02:53:09.605Z,49.8
2022-11-21T02:58:53.937Z,49.7
2022-11-21T03:04:15.845Z,49.7
2022-11-21T03:09:54.519Z,49.6
2022-11-21T03:15:32.733Z,49.6
2022-11-21T03:20:54.020Z,49.6
2022-11-21T03:26:31.813Z,49.5
2022-11-21T03:32:09.515Z,49.4
2022-11-21T03:37:47.151Z,49.5
2022-11-21T03:43:25.727Z,49.4
2022-11-21T03:48:48.155Z,49.3
2022-11-21T03:54:25.649Z,49.3
2022-11-21T03:59:48.059Z,49.3
2022-11-21T04:05:32.122Z,49.3
2022-11-21T04:11:09.746Z,49.2
2022-11-21T04:16:52.842Z,49.1
2022-11-21T04:22:31.197Z,49.1
2022-11-21T04:28:07.791Z,49.1
2022-11-21T04:33:30.998Z,49.1
2022-11-21T04:38:53.553Z,49
2022-11-21T04:44:30.891Z,49
2022-11-21T04:49:56.660Z,48.9
2022-11-21T04:55:23.894Z,48.9
2022-11-21T05:00:46.264Z,48.9
2022-11-21T05:06:24.983Z,48.8
2022-11-21T05:11:31.526Z,48.8
2022-11-21T05:17:09.073Z,48.8
2022-11-21T05:22:50.082Z,48.7
2022-11-21T05:28:11.897Z,48.7
2022-11-21T05:33:37.457Z,48.6
2022-11-21T05:39:20.896Z,48.6
2022-11-21T05:44:58.403Z,48.6
2022-11-21T05:50:05.246Z,48.5
2022-11-21T05:55:31.938Z,48.5
2022-11-21T06:01:14.967Z,48.4
2022-11-21T06:06:41.449Z,48.4
2022-11-21T06:12:04.870Z,48.4
2022-11-21T06:17:46.355Z,48.4
2022-11-21T06:22:57.828Z,48.3
2022-11-21T06:28:37.279Z,48.3
2022-11-21T06:34:20.288Z,48.3
2022-11-21T06:39:48.665Z,48.2
2022-11-21T06:45:26.831Z,48.2
2022-11-21T06:50:50.626Z,48.1
2022-11-21T06:56:30.402Z,48.1
2022-11-21T07:02:08.330Z,48.1
2022-11-21T07:07:52.151Z,48.1
2022-11-21T07:14:32.560Z,48
2022-11-21T07:20:14.005Z,47.9
2022-11-21T07:25:53.440Z,47.9
2022-11-21T07:31:31.159Z,47.9
2022-11-21T07:36:53.928Z,47.8
2022-11-21T07:42:32.163Z,47.8
2022-11-21T07:47:59.505Z,47.8
2022-11-21T07:53:37.594Z,47.7
2022-11-21T07:59:20.957Z,47.7
2022-11-21T08:04:44.799Z,47.7
2022-11-21T08:10:29.277Z,47.6
2022-11-21T08:16:07.145Z,47.6
2022-11-21T08:21:50.097Z,47.6
2022-11-21T08:27:28.236Z,47.5
2022-11-21T08:33:12.666Z,47.4
2022-11-21T08:38:50.897Z,47.4
2022-11-21T08:44:26.196Z,47.4
2022-11-21T08:50:08.752Z,47.4
2022-11-21T08:55:47.150Z,47.3
2022-11-21T09:01:26.028Z,47.3
2022-11-21T09:07:10.739Z,47.3
2022-11-21T09:12:35.554Z,47.2
2022-11-21T09:18:21.602Z,47.2
2022-11-21T09:24:01.863Z,47.1
2022-11-21T09:29:39.467Z,47.1
2022-11-21T09:35:18.533Z,47.1
2022-11-21T09:40:58.795Z,47.1
2022-11-21T09:46:36.964Z,47
2022-11-21T09:52:16.984Z,47
2022-11-21T09:57:55.534Z,46.9
2022-11-21T10:03:38.793Z,46.9
2022-11-21T10:09:19.412Z,46.9
2022-11-21T10:15:00.972Z,46.8
2022-11-21T10:20:40.672Z,46.8
2022-11-21T10:26:19.159Z,46.8
2022-11-21T10:31:58.033Z,46.8
2022-11-21T10:37:40.760Z,46.7
2022-11-21T10:43:18.742Z,46.6
2022-11-21T10:48:42.251Z,46.6
2022-11-21T10:54:24.478Z,46.6
2022-11-21T11:00:04.324Z,46.6
2022-11-21T11:06:26.300Z,46.5
2022-11-21T11:11:51.481Z,46.5
2022-11-21T11:17:48.060Z,46.4
2022-11-21T11:23:37.873Z,46.4
2022-11-21T11:29:01.563Z,46.4
2022-11-21T11:34:40.021Z,46.3
2022-11-21T11:40:04.642Z,46.3
2022-11-21T11:45:27.893Z,46.3
2022-11-21T11:51:35.990Z,46.2
2022-11-21T11:57:14.199Z,46.2
2022-11-21T12:02:58.524Z,46.2
2022-11-21T12:10:18.148Z,46.1
2022-11-21T12:16:01.844Z,46.1
2022-11-21T12:21:43.625Z,46.1
2022-11-21T12:27:22.983Z,46
2022-11-21T12:33:06.756Z,46
2022-11-21T12:38:57.125Z,45.9
2022-11-21T12:44:41.726Z,45.9
2022-11-21T12:50:10.837Z,45.9
2022-11-21T12:55:51.969Z,45.8
2022-11-21T13:01:21.020Z,45.8
2022-11-21T13:07:00.247Z,45.8
2022-11-21T13:12:39.438Z,45.8
2022-11-21T13:18:18.130Z,45.7
2022-11-21T13:23:56.277Z,45.7
2022-11-21T13:29:20.059Z,45.6
2022-11-21T13:35:00.725Z,45.6
2022-11-21T13:40:39.053Z,45.6
2022-11-21T13:46:56.216Z,45.6
2022-11-21T13:52:41.147Z,45.5
2022-11-21T13:58:27.651Z,45.4
2022-11-21T14:04:06.159Z,45.4
2022-11-21T14:09:46.165Z,45.4
2022-11-21T14:15:28.155Z,45.4
2022-11-21T14:21:05.769Z,45.3
2022-11-21T14:26:49.408Z,45.3
2022-11-21T14:32:34.226Z,45.3
2022-11-21T14:38:15.721Z,45.2
2022-11-21T14:44:33.260Z,45.2
2022-11-21T14:50:06.806Z,45.1
2022-11-21T14:56:18.357Z,45.1
2022-11-21T15:02:24.562Z,45.1
2022-11-21T15:16:11.910Z,45
2022-11-21T15:22:25.142Z,44.9
2022-11-21T15:28:03.767Z,44.9
2022-11-21T15:33:49.248Z,44.9
2022-11-21T15:57:12.711Z,44.9
2022-11-21T16:02:53.541Z,44.7
2022-11-21T16:08:23.445Z,44.7
2022-11-21T16:14:07.534Z,44.7
2022-11-21T16:19:50.867Z,44.6
2022-11-21T16:25:36.830Z,44.6
2022-11-21T16:30:59.388Z,44.6
2022-11-21T16:36:38.544Z,44.6
2022-11-21T16:42:26.169Z,44.5
2022-11-21T16:47:52.951Z,44.5
2022-11-21T16:53:31.706Z,44.4
2022-11-21T16:59:13.989Z,44.4
2022-11-21T17:04:38.525Z,44.4
2022-11-21T17:10:17.543Z,44.3
2022-11-21T17:15:39.746Z,44.3
2022-11-21T17:21:02.681Z,44.3
2022-11-21T17:26:41.894Z,44.3
2022-11-21T17:32:25.973Z,44.3
2022-11-21T17:38:06.999Z,44.2
2022-11-21T17:43:47.136Z,44.1
2022-11-21T17:49:16.745Z,44.1
2022-11-21T17:54:39.991Z,44.1
2022-11-21T18:00:26.412Z,44
2022-11-21T18:06:12.116Z,44
2022-11-21T18:12:12.029Z,43.9
2022-11-21T18:17:43.269Z,43.9
2022-11-21T18:23:22.266Z,43.9
2022-11-21T18:29:28.401Z,43.9
2022-11-21T18:34:26.717Z,43.8
2022-11-21T18:40:35.521Z,43.8
2022-11-21T18:46:20.186Z,43.8
2022-11-21T18:52:28.150Z,43.8
2022-11-21T18:57:55.224Z,43.8
2022-11-21T19:08:46.825Z,43.6
2022-11-21T19:14:42.371Z,43.6
2022-11-21T19:20:56.735Z,43.6
2022-11-21T19:26:36.416Z,43.6
2022-11-21T19:32:19.100Z,43.3
2022-11-21T19:37:58.929Z,42.6
2022-11-21T19:43:24.744Z,41
2022-11-21T19:48:50.401Z,40.6
2022-11-21T19:54:40.996Z,40.4
2022-11-21T19:59:50.738Z,39.7
2022-11-21T20:05:18.662Z,39.3
2022-11-21T20:11:01.977Z,39.1
2022-11-21T20:16:44.815Z,39
2022-11-21T20:22:08.768Z,39
2022-11-21T20:27:51.614Z,38.9
2022-11-21T20:40:05.719Z,38.9
2022-11-21T20:47:46.750Z,38.9
2022-11-21T20:56:27.102Z,38.8
2022-11-21T21:02:07.933Z,38.8
2022-11-21T21:07:46.676Z,37.9
2022-11-21T21:14:11.025Z,38.1
2022-11-21T21:19:40.283Z,38.1
2022-11-21T21:25:45.578Z,38.1
2022-11-21T21:31:31.974Z,38.1
2022-11-21T21:37:14.392Z,38.1
2022-11-21T21:42:56.891Z,38.1
2022-11-21T21:48:36.129Z,38.1
2022-11-21T21:54:14.385Z,38.1
2022-11-21T21:59:59.013Z,38.1
2022-11-21T22:05:41.775Z,38.1
2022-11-21T22:10:48.731Z,38.1
2022-11-21T22:16:26.113Z,38.1
2022-11-21T22:22:04.975Z,38.1
2022-11-21T22:28:01.188Z,38.1
2022-11-21T22:33:26.226Z,38.1
2022-11-21T22:39:04.510Z,38
2022-11-21T22:44:32.942Z,38
2022-11-21T22:49:55.800Z,38
2022-11-21T22:55:37.502Z,38
2022-11-21T23:01:15.353Z,38
2022-11-21T23:06:53.404Z,37.9
2022-11-21T23:12:16.972Z,38
2022-11-21T23:17:40.160Z,37.9
2022-11-21T23:22:46.560Z,37.9
2022-11-21T23:28:24.790Z,37.9
2022-11-21T23:33:47.554Z,37.9
2022-11-21T23:39:24.149Z,37.9
2022-11-21T23:45:02.715Z,37.9
2022-11-21T23:50:25.081Z,37.9
2022-11-21T23:55:47.426Z,37.9
